createdAt,value
2023-03-06T00:00:34.659Z,76.91
2023-03-06T00:03:01.233Z,76.71
2023-03-06T00:05:27.916Z,77.66
2023-03-06T00:07:54.512Z,78.26
2023-03-06T00:10:24.988Z,78.29
2023-03-06T00:12:52.932Z,79.15
2023-03-06T00:15:20.213Z,79.15
2023-03-06T00:17:46.927Z,78.18
2023-03-06T00:20:14.530Z,78.41
2023-03-06T00:22:41.293Z,78.65
2023-03-06T00:25:12.364Z,78.18
2023-03-06T00:27:38.886Z,78.37
2023-03-06T00:30:05.923Z,78.80
2023-03-06T00:32:32.320Z,78.43
2023-03-06T00:34:58.798Z,78.77
2023-03-06T00:37:26.007Z,78.43
2023-03-06T00:39:52.480Z,77.61
2023-03-06T00:42:19.798Z,77.84
2023-03-06T00:44:46.330Z,77.66
2023-03-06T00:47:13.540Z,77.52
2023-03-06T00:49:39.929Z,77.79
2023-03-06T00:52:06.401Z,78.08
2023-03-06T00:54:32.792Z,78.19
2023-03-06T00:56:59.165Z,78.17
2023-03-06T00:59:25.617Z,78.62
2023-03-06T01:01:52.070Z,78.80
2023-03-06T01:04:18.630Z,78.63
2023-03-06T01:06:45.058Z,77.68
2023-03-06T01:09:11.673Z,77.63
2023-03-06T01:11:38.066Z,77.14
2023-03-06T01:14:05.199Z,77.24
2023-03-06T01:16:31.728Z,77.65
2023-03-06T01:18:58.447Z,77.04
2023-03-06T01:21:25.561Z,77.04
2023-03-06T01:23:51.992Z,76.87
2023-03-06T01:26:18.503Z,77.24
2023-03-06T01:28:44.940Z,76.72
2023-03-06T01:31:11.536Z,77.43
2023-03-06T01:33:38.062Z,77.37
2023-03-06T01:36:07.333Z,77.95
2023-03-06T01:38:35.425Z,77.08
2023-03-06T01:41:03.484Z,77.24
2023-03-06T01:43:35.177Z,76.84
2023-03-06T01:46:16.672Z,78.99
2023-03-06T01:48:44.607Z,78.73
2023-03-06T01:51:11.713Z,79.82
2023-03-06T01:53:39.778Z,79.07
2023-03-06T01:56:06.998Z,80.71
2023-03-06T01:58:33.788Z,80.55
2023-03-06T02:01:00.219Z,80.40
2023-03-06T02:03:28.354Z,79.36
2023-03-06T02:05:55.898Z,80.45
2023-03-06T02:08:23.777Z,80.63
2023-03-06T02:10:58.676Z,80.73
2023-03-06T02:13:25.190Z,80.05
2023-03-06T02:15:51.684Z,81.69
2023-03-06T02:18:18.134Z,81.97
2023-03-06T02:20:51.680Z,82.32
2023-03-06T02:23:33.306Z,81.23
2023-03-06T02:26:01.631Z,80.96
2023-03-06T02:28:28.102Z,80.69
2023-03-06T02:30:55.818Z,80.36
2023-03-06T02:33:25.586Z,79.95
2023-03-06T02:35:58.381Z,80.74
2023-03-06T02:38:32.934Z,81.36
2023-03-06T02:41:01.457Z,81.95
2023-03-06T02:43:34.857Z,82.27
2023-03-06T02:46:01.298Z,81.83
2023-03-06T02:48:27.774Z,82.11
2023-03-06T02:50:54.165Z,81.99
2023-03-06T02:53:21.170Z,81.40
2023-03-06T02:55:49.131Z,81.32
2023-03-06T02:58:15.571Z,80.68
2023-03-06T03:00:42.097Z,80.60
2023-03-06T03:03:08.509Z,80.27
2023-03-06T03:05:34.889Z,80.39
2023-03-06T03:08:01.323Z,79.84
2023-03-06T03:10:27.738Z,80.37
2023-03-06T03:12:54.454Z,79.89
2023-03-06T03:15:20.898Z,79.67
2023-03-06T03:17:47.442Z,78.90
2023-03-06T03:20:17.290Z,78.92
2023-03-06T03:22:48.166Z,78.91
2023-03-06T03:25:14.540Z,78.42
2023-03-06T03:27:40.908Z,78.30
2023-03-06T03:30:08.424Z,79.70
2023-03-06T03:32:34.891Z,80.64
2023-03-06T03:35:01.467Z,81.22
2023-03-06T03:37:27.946Z,81.38
2023-03-06T03:39:54.328Z,82.37
2023-03-06T03:42:20.815Z,82.89
2023-03-06T03:44:47.293Z,83.01
2023-03-06T03:47:13.675Z,83.58
2023-03-06T03:49:40.041Z,83.27
2023-03-06T03:52:06.548Z,82.56
2023-03-06T03:54:32.903Z,82.30
2023-03-06T03:56:59.405Z,83.51
2023-03-06T03:59:25.833Z,83.67
2023-03-06T04:01:52.456Z,84.49
2023-03-06T04:04:18.922Z,84.81
2023-03-06T04:06:45.359Z,83.25
2023-03-06T04:09:11.707Z,84.03
2023-03-06T04:11:38.590Z,84.17
2023-03-06T04:14:05.006Z,83.21
2023-03-06T04:16:31.432Z,82.58
2023-03-06T04:18:57.806Z,83.45
2023-03-06T04:21:24.230Z,84.23
2023-03-06T04:23:50.603Z,84.24
2023-03-06T04:26:17.065Z,83.19
2023-03-06T04:28:43.430Z,83.18
2023-03-06T04:31:12.201Z,83.01
2023-03-06T04:33:38.808Z,83.14
2023-03-06T04:36:05.568Z,83.40
2023-03-06T04:38:32.030Z,84.69
2023-03-06T04:40:58.539Z,85.12
2023-03-06T04:43:25.107Z,85.33
2023-03-06T04:45:51.671Z,85.02
2023-03-06T04:48:18.964Z,85.08
2023-03-06T04:50:45.938Z,86.15
2023-03-06T04:53:14.497Z,86.38
2023-03-06T04:55:40.888Z,86.23
2023-03-06T04:58:07.338Z,86.12
2023-03-06T05:00:33.797Z,86.42
2023-03-06T05:03:01.041Z,86.01
2023-03-06T05:05:28.133Z,85.50
2023-03-06T05:07:54.730Z,85.74
2023-03-06T05:10:21.795Z,86.48
2023-03-06T05:12:48.593Z,86.58
2023-03-06T05:15:15.110Z,87.19
2023-03-06T05:17:41.653Z,87.17
2023-03-06T05:20:10.062Z,87.54
2023-03-06T05:22:36.733Z,87.27
2023-03-06T05:25:04.807Z,87.69
2023-03-06T05:27:31.200Z,88.41
2023-03-06T05:29:57.849Z,87.68
2023-03-06T05:32:24.343Z,87.19
2023-03-06T05:34:51.066Z,86.91
2023-03-06T05:37:17.499Z,86.96
2023-03-06T05:39:44.226Z,86.97
2023-03-06T05:42:10.614Z,85.65
2023-03-06T05:44:37.980Z,86.88
2023-03-06T05:47:04.750Z,86.39
2023-03-06T05:49:33.558Z,87.00
2023-03-06T05:52:00.937Z,87.03
2023-03-06T05:54:27.383Z,85.81
2023-03-06T05:56:53.907Z,86.72
2023-03-06T05:59:20.368Z,87.28
2023-03-06T06:01:46.720Z,86.62
2023-03-06T06:04:13.167Z,87.67
2023-03-06T06:06:39.584Z,87.18
2023-03-06T06:09:06.038Z,88.21
2023-03-06T06:11:32.439Z,88.31
2023-03-06T06:13:58.885Z,88.21
2023-03-06T06:16:25.279Z,87.97
2023-03-06T06:18:51.670Z,87.95
2023-03-06T06:21:18.119Z,88.71
2023-03-06T06:23:44.572Z,88.59
2023-03-06T06:26:11.073Z,87.48
2023-03-06T06:28:37.675Z,88.41
2023-03-06T06:31:13.566Z,87.69
2023-03-06T06:33:41.079Z,87.42
2023-03-06T06:36:16.222Z,88.31
2023-03-06T06:38:42.871Z,89.97
2023-03-06T06:41:36.061Z,90.23
2023-03-06T06:43:57.592Z,89.31
2023-03-06T06:47:10.794Z,88.48
2023-03-06T06:49:13.103Z,88.18
2023-03-06T06:51:40.558Z,87.55
2023-03-06T06:54:07.589Z,88.16
2023-03-06T06:56:34.511Z,87.87
2023-03-06T06:59:15.561Z,88.41
2023-03-06T07:01:42.843Z,87.75
2023-03-06T07:04:12.294Z,89.30
2023-03-06T07:06:38.761Z,89.12
2023-03-06T07:09:05.608Z,90.51
2023-03-06T07:11:32.060Z,89.20
2023-03-06T07:13:58.503Z,90.38
2023-03-06T07:16:24.969Z,92.26
2023-03-06T07:18:51.387Z,92.65
2023-03-06T07:21:17.766Z,92.46
2023-03-06T07:23:44.586Z,91.78
2023-03-06T07:26:11.045Z,92.46
2023-03-06T07:28:51.265Z,92.69
2023-03-06T07:31:22.819Z,91.55
2023-03-06T07:33:50.619Z,92.97
2023-03-06T07:36:17.778Z,94.10
2023-03-06T07:38:44.283Z,93.45
2023-03-06T07:41:13.570Z,94.36
2023-03-06T07:43:41.151Z,93.77
2023-03-06T07:46:08.051Z,94.00
2023-03-06T07:48:35.742Z,94.15
2023-03-06T07:51:05.230Z,94.06
2023-03-06T07:53:32.386Z,95.44
2023-03-06T07:55:58.865Z,94.47
2023-03-06T07:58:25.715Z,93.11
2023-03-06T08:00:52.676Z,93.58
2023-03-06T08:03:19.123Z,94.53
2023-03-06T08:05:45.556Z,93.98
2023-03-06T08:08:12.651Z,94.71
2023-03-06T08:10:39.241Z,93.00
2023-03-06T08:13:05.681Z,91.54
2023-03-06T08:15:32.120Z,91.89
2023-03-06T08:17:58.519Z,91.71
2023-03-06T08:20:25.001Z,90.49
2023-03-06T08:22:51.401Z,90.35
2023-03-06T08:25:17.862Z,90.59
2023-03-06T08:27:44.270Z,91.39
2023-03-06T08:30:12.168Z,89.94
2023-03-06T08:32:38.647Z,90.27
2023-03-06T08:35:05.505Z,89.36
2023-03-06T08:37:32.019Z,88.56
2023-03-06T08:39:58.657Z,87.63
2023-03-06T08:42:25.088Z,87.05
2023-03-06T08:44:51.526Z,87.72
2023-03-06T08:47:18.005Z,88.78
2023-03-06T08:49:44.442Z,88.35
2023-03-06T08:52:11.133Z,88.30
2023-03-06T08:54:39.070Z,88.16
2023-03-06T08:57:06.541Z,88.48
2023-03-06T08:59:32.947Z,88.55
2023-03-06T09:01:59.742Z,87.83
2023-03-06T09:04:26.193Z,85.12
2023-03-06T09:06:54.511Z,84.08
2023-03-06T09:09:21.842Z,84.92
2023-03-06T09:11:48.460Z,84.82
2023-03-06T09:14:14.885Z,85.22
2023-03-06T09:16:41.365Z,84.97
2023-03-06T09:19:07.921Z,83.74
2023-03-06T09:21:34.399Z,80.68
2023-03-06T09:24:00.809Z,79.09
2023-03-06T09:26:39.517Z,79.44
2023-03-06T09:29:10.222Z,77.30
2023-03-06T09:31:36.622Z,77.45
2023-03-06T09:34:03.168Z,78.67
2023-03-06T09:36:30.784Z,79.08
2023-03-06T09:38:57.412Z,77.78
2023-03-06T09:41:35.348Z,76.95
2023-03-06T09:44:15.090Z,76.60
2023-03-06T09:47:18.994Z,75.26
2023-03-06T09:50:00.714Z,75.00
2023-03-06T09:52:32.627Z,74.77
2023-03-06T09:55:17.208Z,74.75
2023-03-06T09:58:02.418Z,75.02
2023-03-06T10:00:51.900Z,74.58
2023-03-06T10:03:25.667Z,75.34
2023-03-06T10:06:02.797Z,73.49
2023-03-06T10:08:49.095Z,74.14
2023-03-06T10:11:22.361Z,75.80
2023-03-06T10:13:51.530Z,75.74
2023-03-06T10:16:30.825Z,74.17
2023-03-06T10:19:02.460Z,75.22
2023-03-06T10:21:40.960Z,75.99
2023-03-06T10:24:25.015Z,73.68
2023-03-06T10:27:33.158Z,73.66
2023-03-06T10:30:32.561Z,73.90
2023-03-06T10:33:29.098Z,72.09
2023-03-06T10:35:56.368Z,73.80
2023-03-06T10:38:30.239Z,73.59
2023-03-06T10:41:11.961Z,74.56
2023-03-06T10:44:06.562Z,73.08
2023-03-06T10:46:42.292Z,72.10
2023-03-06T10:49:14.815Z,72.11
2023-03-06T10:51:56.012Z,71.10
2023-03-06T10:54:22.468Z,70.76
2023-03-06T10:56:48.871Z,70.78
2023-03-06T10:59:17.299Z,71.33
2023-03-06T11:01:49.677Z,71.94
2023-03-06T11:04:23.404Z,72.04
2023-03-06T11:07:15.765Z,73.56
2023-03-06T11:09:47.602Z,72.20
2023-03-06T11:12:29.210Z,72.59
2023-03-06T11:15:18.780Z,71.29
2023-03-06T11:17:49.834Z,70.95
2023-03-06T11:20:20.867Z,71.22
2023-03-06T11:22:51.884Z,70.60
2023-03-06T11:25:20.802Z,72.31
2023-03-06T11:27:56.173Z,71.77
2023-03-06T11:30:30.946Z,71.25
2023-03-06T11:33:05.881Z,70.92
2023-03-06T11:35:43.420Z,70.45
2023-03-06T11:38:25.956Z,70.08
2023-03-06T11:41:03.200Z,69.47
2023-03-06T11:43:41.987Z,71.63
2023-03-06T11:46:19.696Z,71.73
2023-03-06T11:48:53.762Z,70.60
2023-03-06T11:51:27.704Z,70.12
2023-03-06T11:53:55.123Z,70.49
2023-03-06T11:56:31.895Z,69.17
2023-03-06T11:59:07.718Z,71.10
2023-03-06T12:01:46.127Z,70.02
2023-03-06T12:04:39.293Z,69.34
2023-03-06T12:07:11.392Z,70.11
2023-03-06T12:10:11.956Z,69.85
2023-03-06T12:12:47.574Z,69.85
2023-03-06T12:15:22.243Z,69.82
2023-03-06T12:17:48.559Z,67.22
2023-03-06T12:20:43.956Z,67.99
2023-03-06T12:23:16.475Z,68.13
2023-03-06T12:25:49.098Z,67.18
2023-03-06T12:28:31.083Z,67.83
2023-03-06T12:31:09.352Z,66.79
2023-03-06T12:33:49.677Z,66.83
2023-03-06T12:36:21.737Z,67.00
2023-03-06T12:39:04.873Z,66.28
2023-03-06T12:41:55.325Z,65.54
2023-03-06T12:44:42.375Z,65.59
2023-03-06T12:47:11.570Z,65.42
2023-03-06T12:49:41.699Z,64.06
2023-03-06T12:52:11.058Z,64.06
2023-03-06T12:54:40.992Z,63.46
2023-03-06T12:57:09.312Z,64.52
2023-03-06T12:59:47.073Z,63.96
2023-03-06T13:02:19.557Z,64.87
2023-03-06T13:04:48.970Z,65.78
2023-03-06T13:07:34.012Z,65.43
2023-03-06T13:10:26.488Z,63.45
2023-03-06T13:13:01.589Z,62.15
2023-03-06T13:15:42.567Z,61.10
2023-03-06T13:18:24.036Z,61.27
2023-03-06T13:20:55.459Z,60.98
2023-03-06T13:23:34.933Z,61.09
2023-03-06T13:26:08.171Z,60.48
2023-03-06T13:28:40.483Z,59.67
2023-03-06T13:31:18.216Z,59.22
2023-03-06T13:33:59.787Z,59.46
2023-03-06T13:36:37.688Z,58.65
2023-03-06T13:39:09.277Z,58.40
2023-03-06T13:41:40.925Z,58.44
2023-03-06T13:44:25.738Z,60.10
2023-03-06T13:47:06.177Z,58.40
2023-03-06T13:49:34.205Z,59.09
2023-03-06T13:52:31.751Z,58.17
2023-03-06T13:55:29.075Z,59.04
2023-03-06T13:58:14.024Z,59.44
2023-03-06T14:00:52.478Z,58.69
2023-03-06T14:03:42.344Z,59.13
2023-03-06T14:06:42.131Z,58.04
2023-03-06T14:09:22.985Z,57.67
2023-03-06T14:12:02.405Z,57.20
2023-03-06T14:14:35.029Z,58.92
2023-03-06T14:17:05.163Z,58.83
2023-03-06T14:19:37.459Z,57.86
2023-03-06T14:22:05.774Z,57.45
2023-03-06T14:24:38.033Z,57.65
2023-03-06T14:27:04.577Z,57.68
2023-03-06T14:29:33.244Z,58.23
2023-03-06T14:32:01.163Z,59.00
2023-03-06T14:34:30.944Z,60.12
2023-03-06T14:37:03.124Z,59.43
2023-03-06T14:39:44.004Z,59.04
2023-03-06T14:42:25.922Z,60.52
2023-03-06T14:45:18.693Z,58.45
2023-03-06T14:47:52.898Z,60.05
2023-03-06T14:50:28.070Z,58.19
2023-03-06T14:53:04.618Z,57.36
2023-03-06T14:55:34.878Z,56.49
2023-03-06T14:58:07.716Z,56.94
2023-03-06T15:00:39.623Z,56.30
2023-03-06T15:03:12.779Z,56.79
2023-03-06T15:05:40.464Z,56.43
2023-03-06T15:08:08.803Z,58.21
2023-03-06T15:10:36.589Z,58.23
2023-03-06T15:13:21.170Z,56.30
2023-03-06T15:16:01.130Z,56.37
2023-03-06T15:18:39.167Z,57.12
2023-03-06T15:21:08.940Z,57.19
2023-03-06T15:23:38.786Z,57.47
2023-03-06T15:26:31.201Z,59.15
2023-03-06T15:29:22.682Z,58.66
2023-03-06T15:31:49.198Z,57.73
2023-03-06T15:34:23.188Z,57.07
2023-03-06T15:36:54.192Z,57.59
2023-03-06T15:39:26.616Z,58.90
2023-03-06T15:42:02.415Z,57.69
2023-03-06T15:44:32.424Z,59.50
2023-03-06T15:47:08.533Z,60.22
2023-03-06T15:49:37.812Z,59.02
2023-03-06T15:52:07.590Z,60.73
2023-03-06T15:54:34.412Z,62.69
2023-03-06T15:57:02.956Z,60.66
2023-03-06T15:59:32.918Z,61.55
2023-03-06T16:02:11.381Z,60.68
2023-03-06T16:04:37.843Z,60.69
2023-03-06T16:07:04.215Z,60.80
2023-03-06T16:09:30.588Z,59.72
2023-03-06T16:11:57.539Z,60.26
2023-03-06T16:14:24.695Z,60.86
2023-03-06T16:16:54.335Z,61.16
2023-03-06T16:19:27.781Z,61.75
2023-03-06T16:21:56.544Z,61.48
2023-03-06T16:24:25.048Z,61.90
2023-03-06T16:26:53.687Z,61.91
2023-03-06T16:29:26.591Z,62.28
2023-03-06T16:31:55.458Z,62.66
2023-03-06T16:34:23.043Z,63.17
2023-03-06T16:36:50.215Z,62.16
2023-03-06T16:39:19.784Z,62.31
2023-03-06T16:41:50.204Z,62.97
2023-03-06T16:44:17.156Z,63.82
2023-03-06T16:46:47.399Z,64.70
2023-03-06T16:49:20.608Z,64.87
2023-03-06T16:51:48.176Z,64.71
2023-03-06T16:54:14.830Z,64.52
2023-03-06T16:56:41.572Z,64.09
2023-03-06T16:59:08.392Z,65.36
2023-03-06T17:01:35.096Z,65.63
2023-03-06T17:04:01.545Z,66.45
2023-03-06T17:06:28.490Z,66.78
2023-03-06T17:08:54.934Z,66.41
2023-03-06T17:11:21.427Z,67.03
2023-03-06T17:13:48.505Z,67.18
2023-03-06T17:16:18.064Z,68.63
2023-03-06T17:18:45.668Z,68.81
2023-03-06T17:21:15.592Z,69.37
2023-03-06T17:23:42.264Z,69.26
2023-03-06T17:26:09.947Z,68.25
2023-03-06T17:28:37.645Z,68.82
2023-03-06T17:31:18.555Z,69.20
2023-03-06T17:33:45.536Z,69.46
2023-03-06T17:36:14.296Z,69.81
2023-03-06T17:38:41.266Z,69.94
2023-03-06T17:41:09.363Z,70.34
2023-03-06T17:43:37.158Z,70.79
2023-03-06T17:46:11.421Z,70.22
2023-03-06T17:48:38.715Z,69.99
2023-03-06T17:51:06.266Z,69.91
2023-03-06T17:53:33.047Z,69.32
2023-03-06T17:55:59.533Z,69.70
2023-03-06T17:58:26.851Z,70.49
2023-03-06T18:00:53.632Z,70.34
2023-03-06T18:03:20.652Z,70.43
2023-03-06T18:05:47.185Z,69.91
2023-03-06T18:08:13.890Z,69.53
2023-03-06T18:10:41.744Z,69.46
2023-03-06T18:13:09.695Z,70.34
2023-03-06T18:15:42.157Z,67.62
2023-03-06T18:18:09.239Z,67.36
2023-03-06T18:20:41.074Z,68.82
2023-03-06T18:23:07.537Z,67.65
2023-03-06T18:25:34.070Z,69.27
2023-03-06T18:28:00.611Z,69.25
2023-03-06T18:30:27.305Z,70.01
2023-03-06T18:32:54.316Z,69.37
2023-03-06T18:35:21.565Z,69.19
2023-03-06T18:37:47.970Z,69.23
2023-03-06T18:40:14.848Z,69.91
2023-03-06T18:42:41.208Z,69.99
2023-03-06T18:45:08.162Z,70.37
2023-03-06T18:47:34.674Z,70.97
2023-03-06T18:50:02.663Z,70.70
2023-03-06T18:52:29.048Z,70.44
2023-03-06T18:54:55.493Z,70.18
2023-03-06T18:57:22.082Z,67.93
2023-03-06T18:59:48.537Z,66.06
2023-03-06T19:02:15.061Z,65.76
2023-03-06T19:04:41.466Z,65.67
2023-03-06T19:07:07.902Z,65.56
2023-03-06T19:09:34.331Z,65.46
2023-03-06T19:12:03.353Z,66.05
2023-03-06T19:14:29.832Z,65.71
2023-03-06T19:16:56.502Z,66.41
2023-03-06T19:19:26.353Z,65.44
2023-03-06T19:21:53.478Z,65.33
2023-03-06T19:24:20.100Z,66.90
2023-03-06T19:26:46.551Z,65.71
2023-03-06T19:29:13.130Z,66.02
2023-03-06T19:31:39.736Z,65.36
2023-03-06T19:34:06.265Z,65.38
2023-03-06T19:36:34.162Z,66.12
2023-03-06T19:39:06.249Z,65.45
2023-03-06T19:41:33.450Z,65.45
2023-03-06T19:44:02.316Z,65.48
2023-03-06T19:46:29.235Z,65.32
2023-03-06T19:48:58.283Z,65.28
2023-03-06T19:51:25.511Z,65.41
2023-03-06T19:53:52.388Z,65.71
2023-03-06T19:56:25.977Z,66.18
2023-03-06T19:58:52.703Z,66.29
2023-03-06T20:01:21.432Z,66.94
2023-03-06T20:03:50.407Z,67.03
2023-03-06T20:06:19.115Z,66.93
2023-03-06T20:08:47.042Z,66.87
2023-03-06T20:11:23.384Z,67.05
2023-03-06T20:13:50.272Z,67.26
2023-03-06T20:16:18.134Z,67.33
2023-03-06T20:18:45.352Z,67.28
2023-03-06T20:21:12.100Z,66.97
2023-03-06T20:23:38.568Z,68.49
2023-03-06T20:26:11.774Z,70.12
2023-03-06T20:28:39.302Z,70.65
2023-03-06T20:31:07.806Z,71.45
2023-03-06T20:33:34.271Z,71.77
2023-03-06T20:36:00.743Z,71.91
2023-03-06T20:38:27.199Z,71.30
2023-03-06T20:40:55.781Z,71.20
2023-03-06T20:43:22.167Z,72.11
2023-03-06T20:46:00.021Z,71.58
2023-03-06T20:48:26.558Z,71.87
2023-03-06T20:50:59.615Z,72.03
2023-03-06T20:53:26.275Z,71.68
2023-03-06T20:55:52.782Z,72.64
2023-03-06T20:58:19.230Z,72.87
2023-03-06T21:00:45.884Z,73.12
2023-03-06T21:03:12.276Z,73.64
2023-03-06T21:05:38.655Z,73.67
2023-03-06T21:08:05.349Z,73.80
2023-03-06T21:10:31.903Z,72.93
2023-03-06T21:12:58.458Z,72.80
2023-03-06T21:15:29.798Z,72.41
2023-03-06T21:17:56.748Z,72.17
2023-03-06T21:20:23.281Z,69.84
2023-03-06T21:22:51.537Z,69.58
2023-03-06T21:25:17.933Z,69.99
2023-03-06T21:27:44.461Z,69.25
2023-03-06T21:30:11.577Z,68.89
2023-03-06T21:32:38.009Z,68.76
2023-03-06T21:35:04.706Z,68.40
2023-03-06T21:37:31.166Z,68.66
2023-03-06T21:40:00.862Z,68.43
2023-03-06T21:42:27.259Z,69.99
2023-03-06T21:44:53.626Z,71.28
2023-03-06T21:47:20.145Z,72.49
2023-03-06T21:49:48.671Z,72.57
2023-03-06T21:52:15.085Z,72.41
2023-03-06T21:54:41.557Z,72.78
2023-03-06T21:57:07.946Z,73.63
2023-03-06T21:59:34.297Z,74.21
2023-03-06T22:02:00.669Z,74.05
2023-03-06T22:04:27.112Z,74.39
2023-03-06T22:06:53.490Z,74.63
2023-03-06T22:09:20.070Z,73.62
2023-03-06T22:11:46.482Z,74.32
2023-03-06T22:14:14.628Z,74.33
2023-03-06T22:16:41.152Z,74.57
2023-03-06T22:19:07.598Z,75.13
2023-03-06T22:21:33.989Z,74.82
2023-03-06T22:24:00.384Z,74.40
2023-03-06T22:26:29.113Z,74.43
2023-03-06T22:28:55.739Z,74.27
2023-03-06T22:31:25.069Z,73.40
2023-03-06T22:33:53.797Z,75.20
2023-03-06T22:36:21.376Z,74.58
2023-03-06T22:38:49.012Z,73.90
2023-03-06T22:41:17.862Z,75.21
2023-03-06T22:43:44.257Z,75.11
2023-03-06T22:46:13.353Z,75.60
2023-03-06T22:48:40.807Z,75.89
2023-03-06T22:51:11.717Z,75.30
2023-03-06T22:53:38.588Z,75.43
2023-03-06T22:56:07.871Z,74.82
2023-03-06T22:58:37.042Z,74.50
2023-03-06T23:01:12.688Z,74.43
2023-03-06T23:03:44.395Z,75.62
2023-03-06T23:06:23.627Z,76.33
2023-03-06T23:08:53.062Z,75.91
2023-03-06T23:11:20.894Z,76.41
2023-03-06T23:13:47.327Z,76.23
2023-03-06T23:16:14.024Z,75.24
2023-03-06T23:18:40.910Z,75.17
2023-03-06T23:21:13.146Z,76.51
2023-03-06T23:23:40.252Z,76.92
2023-03-06T23:26:08.629Z,77.45
2023-03-06T23:28:35.147Z,77.42
2023-03-06T23:31:07.254Z,78.35
2023-03-06T23:33:34.038Z,78.05
2023-03-06T23:36:05.650Z,77.10
2023-03-06T23:38:32.718Z,78.35
2023-03-06T23:41:04.183Z,78.22
2023-03-06T23:43:31.496Z,78.48
2023-03-06T23:45:58.358Z,78.05
2023-03-06T23:48:25.344Z,78.84
2023-03-06T23:50:51.702Z,79.02
2023-03-06T23:53:18.174Z,78.61
2023-03-06T23:55:46.309Z,77.60
2023-03-06T23:58:14.078Z,77.91
